Time;durP1;ratioP1;P1;durP2;ratioP2;P2;SDS_P1;SDS_P2;PMS_P1;PMS_P2;Temp;Humidity;BMP_temperature;BMP_pressure;BME280_temperature;BME280_humidity;BME280_pressure;Samples;Min_cycle;Max_cycle;Signal;HPM_P1;HPM_P2
2021/01/17 00:00:21;;;;;;;1.42;0.47;;;7.90;88.60;;;;;;6170542;22;19996;-91
2021/01/17 00:02:48;;;;;;;0.52;0.10;;;7.90;88.50;;;;;;6196686;23;19988;-92
2021/01/17 00:05:25;;;;;;;0.10;0.00;;;7.90;88.50;;;;;;6199080;23;20000;-90
2021/01/17 00:07:51;;;;;;;0.30;0.13;;;7.90;88.40;;;;;;6211137;23;20012;-90
2021/01/17 00:10:22;;;;;;;1.02;0.20;;;7.90;88.30;;;;;;6194940;23;19996;-91
2021/01/17 00:12:50;;;;;;;0.32;0.10;;;7.90;88.40;;;;;;6171914;23;20363;-91
2021/01/17 00:15:16;;;;;;;0.47;0.20;;;7.90;88.20;;;;;;6167684;23;20004;-91
2021/01/17 00:17:43;;;;;;;0.75;0.17;;;7.90;88.20;;;;;;6169950;23;19996;-89
2021/01/17 00:20:14;;;;;;;0.67;0.13;;;7.90;88.20;;;;;;6168882;23;19997;-89
2021/01/17 00:22:44;;;;;;;0.17;0.00;;;7.90;88.20;;;;;;6167132;23;20004;-90
2021/01/17 00:25:12;;;;;;;0.30;0.13;;;7.90;88.20;;;;;;6170792;23;20420;-92
2021/01/17 00:27:38;;;;;;;0.00;0.00;;;8.00;88.20;;;;;;6192365;23;20007;-90
2021/01/17 00:30:06;;;;;;;0.00;0.00;;;8.00;88.20;;;;;;6167770;23;19992;-90
2021/01/17 00:32:33;;;;;;;0.10;0.05;;;8.00;88.30;;;;;;6167251;23;19997;-89
2021/01/17 00:34:59;;;;;;;1.05;0.30;;;7.90;88.20;;;;;;6142201;23;20277;-89
2021/01/17 00:37:26;;;;;;;0.15;0.08;;;7.90;88.30;;;;;;6168313;23;19992;-89
2021/01/17 00:39:52;;;;;;;0.40;0.10;;;7.90;88.40;;;;;;6218076;23;20372;-89
2021/01/17 00:42:19;;;;;;;0.35;0.20;;;7.80;88.50;;;;;;6140323;23;20001;-89
2021/01/17 00:44:45;;;;;;;0.38;0.32;;;7.80;88.70;;;;;;6191568;23;20277;-90
2021/01/17 00:47:13;;;;;;;0.63;0.25;;;7.70;88.80;;;;;;6139568;23;20388;-90
2021/01/17 00:49:39;;;;;;;0.00;0.00;;;7.70;89.00;;;;;;6140827;23;20008;-89
2021/01/17 00:52:06;;;;;;;0.65;0.10;;;7.60;89.10;;;;;;6140715;23;20364;-89
2021/01/17 00:54:32;;;;;;;0.32;0.20;;;7.60;89.30;;;;;;6167370;23;19996;-88
2021/01/17 00:57:05;;;;;;;1.35;0.50;;;7.50;89.30;;;;;;6140860;23;20004;-88
2021/01/17 00:59:31;;;;;;;0.00;0.00;;;7.50;89.40;;;;;;6166051;23;20008;-91
2021/01/17 01:01:58;;;;;;;0.10;0.10;;;7.40;89.50;;;;;;6214268;23;20020;-89
2021/01/17 01:04:24;;;;;;;1.38;0.30;;;7.40;89.70;;;;;;6214863;23;20008;-89
2021/01/17 01:06:51;;;;;;;0.00;0.00;;;7.30;89.70;;;;;;6165685;23;20007;-90
2021/01/17 01:09:18;;;;;;;0.63;0.17;;;7.30;89.80;;;;;;6195602;23;20011;-89
2021/01/17 01:11:44;;;;;;;0.28;0.17;;;7.30;89.90;;;;;;6170771;23;20004;-89
2021/01/17 01:14:10;;;;;;;0.15;0.00;;;7.30;89.90;;;;;;6195883;23;20004;-89
2021/01/17 01:16:37;;;;;;;0.20;0.03;;;7.20;89.90;;;;;;6194607;23;20011;-89
2021/01/17 01:19:03;;;;;;;0.90;0.20;;;7.20;90.00;;;;;;6196590;23;20007;-90
2021/01/17 01:21:38;;;;;;;0.13;0.03;;;7.20;90.00;;;;;;6170607;23;20000;-88
2021/01/17 01:24:05;;;;;;;0.10;0.03;;;7.20;90.00;;;;;;6195491;23;19992;-89
2021/01/17 01:26:44;;;;;;;0.23;0.13;;;7.10;90.00;;;;;;6197313;23;20000;-89
2021/01/17 01:29:11;;;;;;;0.07;0.07;;;7.10;90.10;;;;;;6196477;23;20007;-89
2021/01/17 01:31:38;;;;;;;0.00;0.00;;;7.00;90.10;;;;;;6168649;23;20023;-88
2021/01/17 01:34:05;;;;;;;0.00;0.00;;;7.00;90.10;;;;;;6195386;23;20023;-89
2021/01/17 01:36:36;;;;;;;0.00;0.00;;;7.00;90.10;;;;;;6198278;23;20256;-89
2021/01/17 01:39:03;;;;;;;0.28;0.05;;;6.90;90.10;;;;;;6172555;23;20000;-89
2021/01/17 01:41:32;;;;;;;0.00;0.00;;;6.90;90.10;;;;;;6197929;23;20016;-90
2021/01/17 01:43:58;;;;;;;0.00;0.00;;;6.90;90.10;;;;;;6197553;23;20383;-89
2021/01/17 01:46:26;;;;;;;0.30;0.10;;;6.80;90.10;;;;;;6221732;23;20000;-89
2021/01/17 01:48:53;;;;;;;0.00;0.00;;;6.80;90.10;;;;;;6196033;23;20011;-89
2021/01/17 01:51:20;;;;;;;0.00;0.00;;;6.80;90.20;;;;;;6172785;23;20000;-89
2021/01/17 01:53:46;;;;;;;3.10;0.13;;;6.80;90.20;;;;;;6198134;23;20050;-89
2021/01/17 01:56:13;;;;;;;0.30;0.10;;;6.80;90.20;;;;;;6196847;23;20256;-91
2021/01/17 01:58:41;;;;;;;0.40;0.13;;;6.70;90.20;;;;;;6197811;23;20000;-89
2021/01/17 02:01:07;;;;;;;2.97;0.37;;;6.80;90.20;;;;;;6196719;23;20005;-89
2021/01/17 02:03:34;;;;;;;4.83;0.30;;;6.70;90.10;;;;;;6198681;23;20008;-90
2021/01/17 02:06:00;;;;;;;5.40;0.23;;;6.70;90.10;;;;;;6198516;23;19996;-88
2021/01/17 02:08:46;;;;;;;0.30;0.20;;;6.70;90.10;;;;;;6171983;23;20031;-89
2021/01/17 02:11:21;;;;;;;0.00;0.00;;;6.70;90.10;;;;;;6221819;23;20000;-89
2021/01/17 02:13:54;;;;;;;0.67;0.20;;;6.70;90.10;;;;;;6222141;23;20000;-88
2021/01/17 02:16:21;;;;;;;0.00;0.00;;;6.70;90.20;;;;;;6171884;23;20418;-88
2021/01/17 02:18:48;;;;;;;0.98;0.30;;;6.60;90.10;;;;;;6172690;23;20004;-89
2021/01/17 02:21:14;;;;;;;0.37;0.07;;;6.60;90.10;;;;;;6172383;23;20172;-89
2021/01/17 02:23:44;;;;;;;0.00;0.00;;;6.60;90.10;;;;;;6196844;23;20364;-88
2021/01/17 02:26:10;;;;;;;0.10;0.00;;;6.60;90.10;;;;;;6198052;23;20256;-88
2021/01/17 02:28:37;;;;;;;0.00;0.00;;;6.50;90.10;;;;;;6173538;23;20023;-91
2021/01/17 02:31:03;;;;;;;0.10;0.10;;;6.50;90.10;;;;;;6196839;23;20012;-89
2021/01/17 02:33:32;;;;;;;0.20;0.10;;;6.50;90.10;;;;;;6173175;23;20011;-91
2021/01/17 02:36:13;;;;;;;0.00;0.00;;;6.50;90.10;;;;;;6224371;23;20027;-89
2021/01/17 02:38:47;;;;;;;2.53;0.28;;;6.50;90.10;;;;;;6202519;23;20245;-89
2021/01/17 02:41:26;;;;;;;0.00;0.00;;;6.50;90.10;;;;;;6200052;23;19999;-90
2021/01/17 02:43:52;;;;;;;0.03;0.00;;;6.50;90.10;;;;;;6250995;23;19996;-90
2021/01/17 02:46:19;;;;;;;0.10;0.00;;;6.40;90.10;;;;;;6199233;23;20419;-89
2021/01/17 02:48:45;;;;;;;0.00;0.00;;;6.40;90.10;;;;;;6198507;23;20003;-89
2021/01/17 02:51:11;;;;;;;0.30;0.00;;;6.40;90.10;;;;;;6173760;23;20160;-90
2021/01/17 02:53:44;;;;;;;4.00;0.40;;;6.40;90.10;;;;;;6198648;23;20011;-89
2021/01/17 02:56:15;;;;;;;0.03;0.03;;;6.40;90.10;;;;;;6173623;23;20164;-90
2021/01/17 02:58:42;;;;;;;;;;;6.40;90.10;;;;;;6175267;23;20272;-89
2021/01/17 03:01:08;;;;;;;0.27;0.17;;;6.50;90.10;;;;;;6195789;23;20285;-89
2021/01/17 03:03:40;;;;;;;0.47;0.00;;;6.40;90.00;;;;;;6195991;23;20000;-89
2021/01/17 03:06:07;;;;;;;;;;;6.50;90.00;;;;;;6198514;23;20000;-88
2021/01/17 03:08:36;;;;;;;0.00;0.00;;;6.50;89.90;;;;;;6216594;23;19916;-88
2021/01/17 03:11:04;;;;;;;0.00;0.00;;;6.60;89.80;;;;;;6169701;23;20012;-91
2021/01/17 03:13:30;;;;;;;0.00;0.00;;;6.60;89.70;;;;;;6197571;23;20007;-90
2021/01/17 03:15:57;;;;;;;1.30;0.40;;;6.60;89.60;;;;;;6196803;23;20013;-88
2021/01/17 03:18:24;;;;;;;0.03;0.03;;;6.60;89.60;;;;;;6169646;23;20008;-90
2021/01/17 03:20:50;;;;;;;0.20;0.13;;;6.60;89.50;;;;;;6193193;23;20381;-90
2021/01/17 03:23:17;;;;;;;0.63;0.37;;;6.70;89.40;;;;;;6191881;23;20004;-88
2021/01/17 03:25:43;;;;;;;0.00;0.00;;;6.70;89.40;;;;;;6219173;23;19997;-89
2021/01/17 03:28:09;;;;;;;0.00;0.00;;;6.70;89.30;;;;;;6168160;23;20005;-89
2021/01/17 03:30:36;;;;;;;1.50;0.73;;;6.70;89.30;;;;;;6191977;23;20009;-91
2021/01/17 03:33:02;;;;;;;0.73;0.27;;;6.70;89.30;;;;;;6168161;23;20024;-90
2021/01/17 03:35:37;;;;;;;0.10;0.00;;;6.70;89.20;;;;;;6218881;23;20023;-92
2021/01/17 03:38:04;;;;;;;0.00;0.00;;;6.80;89.30;;;;;;6169939;23;20012;-91
2021/01/17 03:40:30;;;;;;;2.10;0.87;;;6.80;89.20;;;;;;6198353;23;20272;-91
2021/01/17 03:42:56;;;;;;;0.45;0.20;;;6.80;89.10;;;;;;6192715;23;20032;-89
2021/01/17 03:45:23;;;;;;;0.00;0.00;;;6.80;89.10;;;;;;6192249;22;20407;-89
2021/01/17 03:47:49;;;;;;;0.00;0.00;;;6.80;89.10;;;;;;6172441;23;20019;-89
2021/01/17 03:50:16;;;;;;;10.70;0.63;;;6.80;89.10;;;;;;6199877;23;20001;-88
2021/01/17 03:52:42;;;;;;;0.17;0.03;;;6.80;89.20;;;;;;6230755;23;20000;-89
2021/01/17 03:55:09;;;;;;;0.00;0.00;;;6.80;89.20;;;;;;6232508;23;20011;-90
2021/01/17 03:57:35;;;;;;;0.40;0.00;;;6.80;89.20;;;;;;6189629;23;20056;-89
2021/01/17 04:00:06;;;;;;;0.10;0.00;;;6.80;89.20;;;;;;6191879;23;20005;-89
2021/01/17 04:02:33;;;;;;;0.10;0.10;;;6.80;89.20;;;;;;6190430;23;20393;-89
2021/01/17 04:04:59;;;;;;;0.00;0.00;;;6.80;89.20;;;;;;6191771;23;19997;-90
2021/01/17 04:07:28;;;;;;;0.05;0.05;;;6.80;89.20;;;;;;6189072;23;20004;-88
2021/01/17 04:09:54;;;;;;;0.00;0.00;;;6.80;89.20;;;;;;6166543;23;20007;-90
2021/01/17 04:12:21;;;;;;;0.20;0.10;;;6.80;89.20;;;;;;6140863;23;20004;-88
2021/01/17 04:14:47;;;;;;;0.00;0.00;;;6.80;89.20;;;;;;6192781;23;19997;-88
2021/01/17 04:17:13;;;;;;;0.07;0.00;;;6.80;89.20;;;;;;6166142;23;20242;-88
2021/01/17 04:19:40;;;;;;;0.07;0.07;;;6.80;89.20;;;;;;6191007;23;20000;-88
2021/01/17 04:22:06;;;;;;;0.00;0.00;;;6.80;89.20;;;;;;6218819;23;20001;-88
2021/01/17 04:24:32;;;;;;;0.10;0.00;;;6.80;89.10;;;;;;6141854;23;20411;-88
2021/01/17 04:26:59;;;;;;;0.35;0.10;;;6.80;89.10;;;;;;6141344;23;20007;-89
2021/01/17 04:29:25;;;;;;;0.30;0.10;;;6.80;89.10;;;;;;6165938;23;20009;-88
2021/01/17 04:31:52;;;;;;;0.07;0.07;;;6.80;89.10;;;;;;6191246;23;20023;-89
2021/01/17 04:34:18;;;;;;;0.53;0.00;;;6.80;89.20;;;;;;6167347;23;20072;-89
2021/01/17 04:36:46;;;;;;;0.30;0.15;;;6.80;89.10;;;;;;6141210;23;20000;-90
2021/01/17 04:39:13;;;;;;;0.30;0.20;;;6.80;89.10;;;;;;6189610;23;20258;-89
2021/01/17 04:41:41;;;;;;;0.00;0.00;;;6.80;89.10;;;;;;6167004;23;19992;-89
2021/01/17 04:44:09;;;;;;;0.20;0.20;;;6.80;89.10;;;;;;6141087;23;19997;-88
2021/01/17 04:46:36;;;;;;;16.63;0.20;;;6.80;89.10;;;;;;6139760;23;20016;-89
2021/01/17 04:49:04;;;;;;;3.30;0.30;;;6.80;89.10;;;;;;6140971;23;20241;-88
2021/01/17 04:51:30;;;;;;;0.32;0.32;;;6.80;89.10;;;;;;6166970;23;20239;-91
2021/01/17 04:54:04;;;;;;;0.10;0.03;;;6.90;89.10;;;;;;6166182;23;20004;-88
2021/01/17 04:56:31;;;;;;;0.00;0.00;;;6.90;89.10;;;;;;6164858;23;20292;-90
2021/01/17 04:59:18;;;;;;;0.53;0.43;;;6.90;89.10;;;;;;6165666;23;20268;-91
2021/01/17 05:01:49;;;;;;;0.03;0.03;;;6.90;89.00;;;;;;6191029;23;20185;-88
2021/01/17 05:04:22;;;;;;;4.68;0.08;;;6.90;89.00;;;;;;6165201;23;20027;-88
2021/01/17 05:06:49;;;;;;;0.00;0.00;;;6.90;89.00;;;;;;6164753;23;20001;-88
2021/01/17 05:09:20;;;;;;;0.00;0.00;;;6.90;89.00;;;;;;6140376;23;20276;-88
2021/01/17 05:11:49;;;;;;;3.00;0.47;;;6.90;89.00;;;;;;6164409;23;20005;-90
2021/01/17 05:14:43;;;;;;;0.00;0.00;;;6.90;89.00;;;;;;6140453;23;20001;-88
2021/01/17 05:17:21;;;;;;;0.00;0.00;;;6.90;89.00;;;;;;6190248;23;20008;-88
2021/01/17 05:19:47;;;;;;;0.40;0.27;;;6.90;89.10;;;;;;6141382;23;20000;-90
2021/01/17 05:22:14;;;;;;;0.00;0.00;;;6.90;89.00;;;;;;6165974;23;20264;-89
2021/01/17 05:24:44;;;;;;;4.33;0.27;;;6.90;89.00;;;;;;6190227;23;20008;-89
2021/01/17 05:27:10;;;;;;;0.00;0.00;;;6.90;89.10;;;;;;6164697;23;20004;-89
2021/01/17 05:29:37;;;;;;;0.00;0.00;;;6.90;89.00;;;;;;6164776;23;20005;-88
2021/01/17 05:32:06;;;;;;;0.00;0.00;;;7.00;89.10;;;;;;6166256;23;20013;-88
2021/01/17 05:34:33;;;;;;;0.77;0.20;;;6.90;88.90;;;;;;6140649;23;20017;-89
2021/01/17 05:37:13;;;;;;;0.00;0.00;;;7.00;89.00;;;;;;6140051;23;20015;-89
2021/01/17 05:40:05;;;;;;;0.00;0.00;;;7.00;89.00;;;;;;6191352;23;20000;-89
2021/01/17 05:42:38;;;;;;;0.00;0.00;;;7.00;88.90;;;;;;6142167;23;20003;-88
2021/01/17 05:45:11;;;;;;;0.00;0.00;;;7.00;88.90;;;;;;6167040;23;20003;-88
2021/01/17 05:47:38;;;;;;;0.13;0.00;;;7.00;88.80;;;;;;6189123;23;20261;-90
2021/01/17 05:50:06;;;;;;;0.03;0.00;;;7.00;88.90;;;;;;6167542;23;19997;-89
2021/01/17 05:52:33;;;;;;;0.35;0.10;;;7.00;88.90;;;;;;6166491;23;20284;-89
2021/01/17 05:54:59;;;;;;;0.00;0.00;;;7.00;88.90;;;;;;6166407;23;20019;-89
2021/01/17 05:57:26;;;;;;;0.50;0.20;;;7.00;88.90;;;;;;6139747;23;20000;-88
2021/01/17 05:59:52;;;;;;;0.00;0.00;;;7.00;88.80;;;;;;6165559;23;20001;-89
2021/01/17 06:02:20;;;;;;;0.00;0.00;;;7.00;88.80;;;;;;6164624;23;20422;-89
2021/01/17 06:04:57;;;;;;;3.27;0.27;;;7.00;88.80;;;;;;6166049;23;20008;-88
2021/01/17 06:07:25;;;;;;;0.20;0.03;;;7.00;88.90;;;;;;6190464;23;20019;-89
2021/01/17 06:10:01;;;;;;;9.67;0.27;;;7.00;88.80;;;;;;6189978;23;20008;-88
2021/01/17 06:12:38;;;;;;;6.33;0.50;;;7.00;88.80;;;;;;6166234;23;20008;-89
2021/01/17 06:15:08;;;;;;;0.08;0.00;;;7.00;88.80;;;;;;6192370;22;20080;-88
2021/01/17 06:17:39;;;;;;;0.00;0.00;;;6.90;88.70;;;;;;6216138;23;20316;-88
2021/01/17 06:20:08;;;;;;;0.00;0.00;;;7.00;88.80;;;;;;6191548;23;20008;-88
2021/01/17 06:22:35;;;;;;;1.20;0.47;;;7.00;88.70;;;;;;6190408;23;20008;-89
2021/01/17 06:25:04;;;;;;;0.63;0.10;;;7.00;88.70;;;;;;6195804;23;20008;-88
2021/01/17 06:27:30;;;;;;;0.00;0.00;;;7.00;88.70;;;;;;6218578;23;19992;-88
2021/01/17 06:29:57;;;;;;;0.30;0.10;;;7.00;88.70;;;;;;6166557;23;20011;-88
2021/01/17 06:32:30;;;;;;;2.23;0.47;;;7.00;88.70;;;;;;6189823;23;20019;-87
2021/01/17 06:34:57;;;;;;;0.10;0.10;;;7.00;88.70;;;;;;6221542;23;20008;-89
2021/01/17 06:37:25;;;;;;;0.13;0.00;;;7.00;88.70;;;;;;6195499;23;20003;-88
2021/01/17 06:39:56;;;;;;;0.53;0.40;;;7.00;88.80;;;;;;6195232;23;20005;-89
2021/01/17 06:42:23;;;;;;;0.17;0.10;;;7.00;88.80;;;;;;6216938;23;20001;-88
2021/01/17 06:44:50;;;;;;;0.10;0.10;;;7.00;88.80;;;;;;6165904;23;20020;-89
2021/01/17 06:47:21;;;;;;;0.93;0.20;;;7.00;88.80;;;;;;6190772;23;20009;-89
2021/01/17 06:49:48;;;;;;;0.10;0.00;;;7.00;88.80;;;;;;6166483;23;20012;-90
2021/01/17 06:52:16;;;;;;;0.27;0.03;;;7.00;88.80;;;;;;6166898;23;20261;-90
2021/01/17 06:54:47;;;;;;;0.07;0.00;;;7.00;88.70;;;;;;6191947;23;20001;-89
2021/01/17 06:57:14;;;;;;;;;;;7.00;88.80;;;;;;6193997;23;20007;-89
2021/01/17 06:59:43;;;;;;;5.23;0.40;;;7.00;88.70;;;;;;6190639;23;19904;-89
2021/01/17 07:02:24;;;;;;;0.00;0.00;;;7.00;88.70;;;;;;6214843;22;20013;-89
2021/01/17 07:05:02;;;;;;;2.03;0.17;;;7.00;88.70;;;;;;6218280;23;19996;-89
2021/01/17 07:07:53;;;;;;;0.00;0.00;;;7.00;88.70;;;;;;6215679;23;20286;-90
2021/01/17 07:10:21;;;;;;;2.90;0.30;;;7.00;88.70;;;;;;6216149;23;20008;-88
2021/01/17 07:12:54;;;;;;;0.73;0.43;;;7.00;88.70;;;;;;6190783;23;20004;-87
2021/01/17 07:15:31;;;;;;;0.00;0.00;;;7.00;88.80;;;;;;6216871;22;20008;-88
2021/01/17 07:18:05;;;;;;;9.20;0.10;;;7.00;88.80;;;;;;6165533;23;20020;-89
2021/01/17 07:20:35;;;;;;;0.37;0.10;;;7.00;88.70;;;;;;6167035;23;20004;-90
2021/01/17 07:23:02;;;;;;;4.37;0.03;;;7.00;88.80;;;;;;6216891;23;19993;-86
2021/01/17 07:25:29;;;;;;;0.00;0.00;;;6.90;88.80;;;;;;6216547;23;19992;-88
2021/01/17 07:28:14;;;;;;;0.00;0.00;;;6.90;88.80;;;;;;6191167;23;19997;-87
2021/01/17 07:30:54;;;;;;;0.30;0.20;;;7.00;88.90;;;;;;6215423;22;20019;-88
2021/01/17 07:33:43;;;;;;;0.10;0.00;;;6.90;88.80;;;;;;6217160;23;20000;-88
2021/01/17 07:36:15;;;;;;;0.00;0.00;;;7.00;88.80;;;;;;6215865;23;20004;-88
2021/01/17 07:38:46;;;;;;;0.00;0.00;;;7.00;88.80;;;;;;6192894;23;20000;-89
2021/01/17 07:41:13;;;;;;;;;;;7.00;88.80;;;;;;6216681;23;20008;-90
2021/01/17 07:43:43;;;;;;;0.10;0.00;;;6.90;88.70;;;;;;6218846;23;19900;-88
2021/01/17 07:46:14;;;;;;;0.95;0.10;;;6.90;88.70;;;;;;6191348;23;20406;-88
2021/01/17 07:48:41;;;;;;;0.00;0.00;;;6.90;88.70;;;;;;6166395;23;20027;-88
2021/01/17 07:51:08;;;;;;;0.10;0.00;;;7.00;88.70;;;;;;6166627;23;20005;-87
2021/01/17 07:53:38;;;;;;;1.13;0.45;;;7.00;88.70;;;;;;6192586;23;20000;-88
2021/01/17 07:56:14;;;;;;;0.40;0.20;;;7.00;88.70;;;;;;6218219;23;20011;-88
2021/01/17 07:58:48;;;;;;;0.10;0.00;;;7.00;88.70;;;;;;6215781;23;19996;-89
2021/01/17 08:01:34;;;;;;;0.00;0.00;;;7.00;88.70;;;;;;6214794;23;20019;-90
2021/01/17 08:04:21;;;;;;;0.00;0.00;;;7.00;88.80;;;;;;6216231;23;20012;-89
2021/01/17 08:06:57;;;;;;;0.00;0.00;;;7.00;88.70;;;;;;6166729;23;20001;-88
2021/01/17 08:09:46;;;;;;;2.80;0.67;;;7.00;88.80;;;;;;6168820;23;20023;-87
2021/01/17 08:12:35;;;;;;;0.00;0.00;;;7.00;88.80;;;;;;6194412;23;20008;-90
2021/01/17 08:15:18;;;;;;;0.00;0.00;;;6.90;88.80;;;;;;6218830;23;20003;-89
2021/01/17 08:17:45;;;;;;;0.20;0.10;;;6.90;88.80;;;;;;6190697;23;20040;-89
2021/01/17 08:20:20;;;;;;;0.33;0.07;;;6.90;88.90;;;;;;6191876;23;20279;-89
2021/01/17 08:22:46;;;;;;;0.00;0.00;;;6.90;88.90;;;;;;6191489;23;20012;-89
2021/01/17 08:25:13;;;;;;;0.77;0.30;;;6.80;88.90;;;;;;6167812;23;20001;-89
2021/01/17 08:27:46;;;;;;;0.40;0.10;;;6.80;89.00;;;;;;6166915;23;19996;-88
2021/01/17 08:30:19;;;;;;;0.10;0.00;;;6.80;89.10;;;;;;6216913;22;20012;-89
2021/01/17 08:32:50;;;;;;;2.93;0.37;;;6.80;89.10;;;;;;6168283;23;20008;-89
2021/01/17 08:35:19;;;;;;;0.70;0.10;;;6.80;89.20;;;;;;6194388;23;20000;-89
2021/01/17 08:37:45;;;;;;;0.13;0.13;;;6.80;89.10;;;;;;6218339;23;20280;-90
2021/01/17 08:40:27;;;;;;;0.30;0.13;;;6.80;89.10;;;;;;6216799;23;20397;-89
2021/01/17 08:42:54;;;;;;;;;;;6.80;89.00;;;;;;6219209;23;20008;-90
2021/01/17 08:45:20;;;;;;;3.70;0.60;;;6.80;88.90;;;;;;6189997;22;19900;-90
2021/01/17 08:47:49;;;;;;;0.00;0.00;;;6.90;88.90;;;;;;6215527;23;20012;-92
2021/01/17 08:50:36;;;;;;;0.00;0.00;;;6.90;88.60;;;;;;6216687;23;20005;-92
2021/01/17 08:53:09;;;;;;;1.30;0.10;;;7.00;88.50;;;;;;6169278;23;20009;-93
2021/01/17 08:55:36;;;;;;;0.20;0.10;;;7.00;88.40;;;;;;6224636;23;20005;-92
2021/01/17 08:58:04;;;;;;;1.80;0.30;;;7.00;88.30;;;;;;6200203;23;20060;-92
2021/01/17 09:00:49;;;;;;;0.67;0.20;;;7.00;88.30;;;;;;6195718;23;20017;-88
2021/01/17 09:03:42;;;;;;;6.88;0.13;;;7.10;88.30;;;;;;6217473;23;20001;-89
2021/01/17 09:06:12;;;;;;;1.17;0.30;;;7.10;88.10;;;;;;6221364;23;20008;-89
2021/01/17 09:08:42;;;;;;;0.70;0.20;;;7.20;88.00;;;;;;6221374;23;20012;-89
2021/01/17 09:11:27;;;;;;;0.00;0.00;;;7.20;87.90;;;;;;6195239;23;20011;-89
2021/01/17 09:14:12;;;;;;;0.00;0.00;;;7.30;87.70;;;;;;6219543;23;20000;-89
2021/01/17 09:16:51;;;;;;;6.63;0.40;;;7.40;87.50;;;;;;6221692;23;20027;-90
2021/01/17 09:19:18;;;;;;;0.20;0.03;;;7.50;87.40;;;;;;6221979;23;20043;-89
2021/01/17 09:21:47;;;;;;;0.93;0.20;;;7.50;87.20;;;;;;6172669;23;20546;-93
2021/01/17 09:27:38;;;;;;;0.00;0.00;;;7.70;86.90;;;;;;6215476;23;20004;-89
2021/01/17 09:30:07;;;;;;;0.00;0.00;;;7.80;86.60;;;;;;6198529;22;20018;-89
2021/01/17 09:32:38;;;;;;;0.10;0.00;;;7.90;86.30;;;;;;6170046;23;20007;-91
2021/01/17 09:35:05;;;;;;;0.13;0.08;;;8.00;86.10;;;;;;6169600;23;20066;-90
2021/01/17 09:37:34;;;;;;;5.15;0.47;;;8.10;86.70;;;;;;6193643;23;20403;-92
2021/01/17 09:40:02;;;;;;;0.00;0.00;;;8.10;85.90;;;;;;6194064;23;20007;-91
2021/01/17 09:42:28;;;;;;;0.60;0.28;;;8.20;85.80;;;;;;6170232;23;20007;-91
2021/01/17 09:45:03;;;;;;;0.00;0.00;;;8.30;85.50;;;;;;6194148;23;20000;-90
2021/01/17 09:47:30;;;;;;;0.47;0.47;;;8.40;85.50;;;;;;6167563;23;20406;-91
2021/01/17 09:50:08;;;;;;;0.10;0.10;;;8.40;85.30;;;;;;6193285;23;20004;-91
2021/01/17 09:52:39;;;;;;;0.00;0.00;;;8.50;85.30;;;;;;6169955;23;20427;-91
2021/01/17 09:55:44;;;;;;;0.45;0.38;;;8.60;85.00;;;;;;6170067;23;20000;-89
2021/01/17 10:01:31;;;;;;;;;;;;;;;;;;;;;
2021/01/17 10:03:58;;;;;;;0.05;0.00;;;9.20;83.50;;;;;;6109954;23;20009;-89
2021/01/17 10:06:31;;;;;;;2.97;0.20;;;9.30;83.60;;;;;;6106930;23;20009;-91
2021/01/17 10:10:26;;;;;;;0.20;0.10;;;9.20;83.50;;;;;;6129350;23;20040;-91
2021/01/17 10:12:33;;;;;;;0.35;0.10;;;9.30;83.80;;;;;;6143195;23;20024;-91
2021/01/17 10:15:47;;;;;;;0.40;0.10;;;9.50;83.30;;;;;;6130578;23;20016;-90
2021/01/17 10:18:16;;;;;;;0.20;0.20;;;9.80;82.50;;;;;;6080356;23;20037;-90
2021/01/17 10:20:46;;;;;;;4.93;0.15;;;10.10;81.70;;;;;;6128830;23;20005;-91
2021/01/17 10:23:18;;;;;;;0.00;0.00;;;10.40;81.20;;;;;;6076482;23;20033;-91
2021/01/17 10:25:47;;;;;;;0.00;0.00;;;10.60;80.60;;;;;;6108717;23;20005;-92
2021/01/17 10:28:24;;;;;;;14.50;0.25;;;10.60;80.40;;;;;;6110827;23;20004;-91
2021/01/17 10:30:55;;;;;;;0.08;0.08;;;10.60;80.50;;;;;;6194970;23;20402;-90
2021/01/17 10:33:22;;;;;;;0.88;0.30;;;10.60;80.90;;;;;;6196391;23;20055;-91
2021/01/17 10:35:48;;;;;;;0.08;0.00;;;10.70;80.80;;;;;;6170613;23;20000;-92
2021/01/17 10:38:45;;;;;;;0.10;0.00;;;10.80;80.70;;;;;;6195675;23;20039;-88
2021/01/17 10:41:41;;;;;;;0.05;0.00;;;10.70;80.80;;;;;;6218997;23;20004;-89
2021/01/17 10:48:06;;;;;;;0.00;0.00;;;10.60;81.40;;;;;;6155139;23;20024;-90
2021/01/17 10:50:56;;;;;;;0.52;0.10;;;10.50;81.80;;;;;;6118169;23;20001;-91
2021/01/17 10:53:28;;;;;;;0.10;0.10;;;10.40;82.20;;;;;;6147698;23;20023;-91
2021/01/17 10:55:58;;;;;;;;;;;10.40;82.20;;;;;;6117991;23;20016;-92
2021/01/17 10:58:41;;;;;;;0.00;0.00;;;10.50;82.10;;;;;;6136131;23;19904;-91
2021/01/17 11:01:08;;;;;;;0.90;0.30;;;10.60;81.90;;;;;;6137471;23;20196;-91
2021/01/17 11:03:36;;;;;;;0.43;0.20;;;10.70;81.70;;;;;;6134175;23;20029;-91
2021/01/17 11:06:12;;;;;;;0.10;0.10;;;10.80;81.40;;;;;;6182897;23;20001;-92
2021/01/17 11:08:45;;;;;;;0.80;0.20;;;10.90;81.00;;;;;;6158621;23;20328;-90
2021/01/17 11:11:12;;;;;;;0.08;0.08;;;10.90;80.90;;;;;;6135312;23;20013;-90
2021/01/17 11:13:39;;;;;;;3.20;0.30;;;10.90;81.00;;;;;;6136480;23;20004;-91
2021/01/17 11:16:10;;;;;;;14.40;0.38;;;11.00;80.90;;;;;;6141190;23;20250;-91
2021/01/17 11:18:37;;;;;;;1.35;0.10;;;11.00;80.60;;;;;;6144405;23;20399;-92
2021/01/17 11:21:04;;;;;;;3.45;0.15;;;10.90;80.60;;;;;;6142713;23;20004;-91
2021/01/17 11:23:31;;;;;;;0.00;0.00;;;10.90;81.10;;;;;;6142652;23;20008;-91
2021/01/17 11:26:10;;;;;;;0.00;0.00;;;10.80;80.90;;;;;;6171687;23;20247;-89
2021/01/17 11:28:53;;;;;;;0.00;0.00;;;10.80;81.10;;;;;;6124005;23;20416;-92
2021/01/17 11:32:11;;;;;;;0.00;0.00;;;10.70;81.30;;;;;;6164070;23;20284;-93
2021/01/17 11:34:43;;;;;;;0.00;0.00;;;10.90;81.10;;;;;;6194814;23;20272;-93
2021/01/17 11:38:15;;;;;;;0.00;0.00;;;10.90;80.50;;;;;;6143627;23;20004;-92
2021/01/17 11:40:50;;;;;;;0.00;0.00;;;10.90;80.60;;;;;;6093921;23;20274;-90
2021/01/17 11:43:46;;;;;;;0.85;0.30;;;11.10;80.20;;;;;;6087840;23;20025;-92
2021/01/17 11:50:21;;;;;;;0.90;0.47;;;11.20;79.60;;;;;;6095038;23;20008;-91
2021/01/17 12:21:02;;;;;;;0.00;0.00;;;11.40;78.20;;;;;;6252768;22;20024;-90
2021/01/17 12:27:37;;;;;;;1.02;0.43;;;11.60;77.60;;;;;;6163183;23;20012;-93
2021/01/17 12:34:18;;;;;;;0.10;0.00;;;11.80;77.30;;;;;;6040460;23;20027;-92
2021/01/17 12:44:33;;;;;;;3.40;0.65;;;11.50;77.30;;;;;;6230721;22;20114;-88
2021/01/17 12:51:15;;;;;;;3.22;0.10;;;11.50;77.70;;;;;;6195769;23;20047;-89
2021/01/17 12:53:48;;;;;;;1.13;0.03;;;11.70;77.20;;;;;;6203135;23;20014;-88
2021/01/17 13:03:31;;;;;;;1.48;0.05;;;12.00;75.90;;;;;;5977966;24;20031;-89
2021/01/17 13:06:15;;;;;;;0.00;0.00;;;11.90;76.10;;;;;;6009948;23;20024;-89
2021/01/17 13:09:27;;;;;;;0.00;0.00;;;12.00;76.10;;;;;;6219737;23;20011;-91
2021/01/17 13:12:37;;;;;;;0.00;0.00;;;12.00;76.10;;;;;;6220993;23;20004;-89
2021/01/17 13:15:28;;;;;;;0.00;0.00;;;11.70;76.40;;;;;;6205560;23;20020;-89
2021/01/17 13:17:54;;;;;;;0.13;0.10;;;11.50;76.90;;;;;;6173402;23;20000;-90
2021/01/17 13:20:23;;;;;;;0.00;0.00;;;11.20;77.40;;;;;;6207367;23;20000;-91
2021/01/17 13:22:50;;;;;;;0.30;0.13;;;11.10;77.70;;;;;;6173276;23;20186;-92
2021/01/17 13:25:26;;;;;;;0.55;0.43;;;11.00;78.00;;;;;;6168139;23;20000;-90
2021/01/17 13:28:14;;;;;;;0.20;0.05;;;10.90;78.20;;;;;;6191609;23;20000;-91
2021/01/17 13:31:06;;;;;;;0.35;0.20;;;10.80;78.30;;;;;;6196941;23;20031;-92
2021/01/17 13:33:33;;;;;;;9.23;0.22;;;10.80;78.40;;;;;;6200375;23;20004;-90
2021/01/17 13:36:09;;;;;;;;;;;;;;;;;;;;;
2021/01/17 13:38:55;;;;;;;0.00;0.00;;;11.00;77.80;;;;;;6190550;23;20020;-92
2021/01/17 13:41:22;;;;;;;0.38;0.10;;;11.20;77.30;;;;;;6167021;23;20008;-89
2021/01/17 13:43:48;;;;;;;0.00;0.00;;;11.40;77.00;;;;;;6165045;23;20011;-89
2021/01/17 13:46:27;;;;;;;0.00;0.00;;;11.40;76.60;;;;;;6162793;23;20011;-92
2021/01/17 13:49:11;;;;;;;0.00;0.00;;;11.30;76.20;;;;;;6136446;23;19996;-89
2021/01/17 13:51:38;;;;;;;1.48;0.20;;;11.10;76.50;;;;;;6169752;23;20562;-89
2021/01/17 13:54:23;;;;;;;5.78;0.10;;;11.00;76.70;;;;;;6190876;23;20001;-90
2021/01/17 13:57:42;;;;;;;0.00;0.00;;;11.00;76.90;;;;;;6145156;23;20047;-92
2021/01/17 13:59:45;;;;;;;0.00;0.00;;;10.90;76.90;;;;;;6166410;23;20388;-92
2021/01/17 14:02:27;;;;;;;0.30;0.20;;;11.00;76.90;;;;;;6152523;23;20013;-92
2021/01/17 14:04:53;;;;;;;0.00;0.00;;;11.00;76.20;;;;;;6168254;23;20372;-92
2021/01/17 14:07:31;;;;;;;0.00;0.00;;;11.00;76.40;;;;;;6166966;23;20001;-92
2021/01/17 14:10:02;;;;;;;0.05;0.00;;;11.00;76.20;;;;;;6164306;23;20017;-93
2021/01/17 14:12:57;;;;;;;0.10;0.00;;;11.00;76.00;;;;;;6166654;23;20268;-90
2021/01/17 14:16:24;;;;;;;0.38;0.38;;;11.10;75.80;;;;;;6137299;23;20008;-91
2021/01/17 14:19:30;;;;;;;;;;;;;;;;;;;;;
2021/01/17 14:21:59;;;;;;;0.30;0.10;;;11.10;75.40;;;;;;6182488;23;20005;-90
2021/01/17 14:24:38;;;;;;;0.00;0.00;;;11.20;75.50;;;;;;6195145;23;20007;-89
2021/01/17 14:27:08;;;;;;;1.02;0.25;;;11.30;75.40;;;;;;6168684;23;20016;-90
2021/01/17 14:29:34;;;;;;;0.75;0.20;;;11.30;75.10;;;;;;6159894;23;20019;-91
2021/01/17 14:32:11;;;;;;;1.55;0.20;;;11.40;75.10;;;;;;6156240;23;20009;-90
2021/01/17 14:35:12;;;;;;;1.77;0.82;;;11.50;74.80;;;;;;6131047;23;20006;-90
2021/01/17 14:45:12;;;;;;;3.60;0.65;;;11.30;74.30;;;;;;6147522;23;20016;-93